Online since October of 2007


Active alerts

Marquette
  Details for Marquette River Flood Warning  +4 additional alerts

Bigbaywx more information Bigbaywx


mount mesnard more information Mount Mesnard


visit our other weather sites:

Template documentation
and downloads

And another site


CBI


nearby metar reports

   
KSAW - Sawyer, Michigan
updated: Apr 22 2019 10:18 pm
light snow, overcast  
light snow, overcast  
   wind: nne 18.4 mph
wind: nne 18.4 mph
temperature: 35.6°F
wind chill: 24.8°F
dew point: 35.6°F
humidity: 100%
barometer: 29.99 inHg
clouds: overcast
visibility: 1 mi
cloud details: overcast 61 m
KSAW 230218Z AUTO 02016KT 1/2SM -SN OVC002 02/02 A2999 RMK AO2 T00200015
KESC - Escanaba, Michigan
updated: Apr 22 2019 9:56 pm
light rain, overcast  
light rain, overcast  
   wind: north 8.1 mph
wind: north 8.1 mph
temperature: 42.8°F
wind chill: 37.4°F
dew point: 39.2°F
humidity: 87%
barometer: 29.96 inHg
clouds: overcast
visibility: 10 mi
cloud details: mostly cloudy 213 m,
overcast 1676 m
KESC 230156Z AUTO 35007KT 10SM -RA BKN007 OVC055 06/04 A2996 RMK AO2 CIG 004V010 SLP170 P0002 T00560044
KIMT - Iron Mountain, MI
updated: Apr 22 2019 9:54 pm
light rain, overcast  
light rain, overcast  
   wind: north 13.8 mph
wind: north 13.8 mph
temperature: 39.2°F
wind chill: 30.2°F
dew point: 37.4°F
humidity: 93%
barometer: 29.98 inHg
clouds: overcast
visibility: 10 mi
cloud details: overcast 244 m
KIMT 230154Z AUTO 36012KT 10SM -RA OVC008 04/03 A2998 RMK AO2 SLP162 P0000 T00440028
KGRB - Green Bay, WI
updated: Apr 22 2019 10:30 pm
Heavy Thunderstorm, rain, mist, overcast  
Heavy Thunderstorm, rain, mist, overcast  
   wind: nne 10.4 mph
wind: nne 10.4 mph
temperature: 46.4°F
wind chill: 41°F
dew point: 44.6°F
humidity: 93%
barometer: 29.92 inHg
clouds: overcast
visibility: 4 mi
cloud details: mostly cloudy 244 m,
mostly cloudy 793 m,
overcast 2134 m
KGRB 230230Z 03009KT 4SM +TSRA BR BKN008 BKN026 OVC070 08/07 A2992 RMK AO2 LTG DSNT NE AND E TSB15 P0016 T00830067
KDET - Detroit, MI
updated: Apr 22 2019 9:53 pm
clear  
clear  
   wind: se 9.2 mph
wind: se 9.2 mph
temperature: 55.4°F
dew point: 42.8°F
humidity: 63%
barometer: 30.06 inHg
clouds: clear
visibility: 10 mi
cloud details: clear
KDET 230153Z 14008KT 10SM CLR 13/06 A3006 RMK AO2 SLP178 T01330061
 

script developed by  Saratoga-weather.org adapted for the template by  Weerstation Leuven

you find our weather info also at:

Weather Underground

midwestern weather network

WeatherlinkIP

Citizen Weather Observer Program (CWOP)

equipment we use:

weather-station
Davis VP2

weather-program
Davis Weatherlink.Com

Davis VP2

Davis Weatherlink.Com